Terminal Aerodrome Forecast
Issued by NWS

Home | Current Version | Previous Version | Graphics & Text | Print | Product List | Glossary On
Versions: 1 2 3 4 5 6 7 8 9 10 11 12
075
FTUS41 KCLE 251724
TAFFDY
TAF
KFDY 251724Z 2518/2618 26010KT P6SM SCT035 BKN120
     FM260000 29005KT P6SM FEW045 SCT200
     FM260800 35004KT 6SM BR SKC
     FM261500 04008KT P6SM SCT035=

USA.gov is the U.S. government's official web portal to all federal, state and local government web resources and services.